Terminal Aerodrome Forecast
Issued by NWS Anchorage, AK

Home | Current Version | Previous Version | Text Only | Print | Product List | Glossary On
Versions: 1 2 3 4 5 6 7 8 9 10 11 12 13 14 15 16 17 18 19 20 21 22 23 24 25 26 27 28 29 30 31 32 33 34 35 36 37 38 39 40 41 42 43 44 45 46 47 48 49 50
172
FTAK31 PANC 232332
TAFANC
TAF
PANC 232332Z 2400/2506 03008KT 3SM -SN OVC025
      TEMPO 2400/2403 3/4SM -SN BR BKN015
     FM240300 01007KT P6SM VCSH SCT040 OVC060
     FM240600 01010KT P6SM SCT070 OVC100 WS020/12035KT
     FM241800 36006KT P6SM VCSH SCT040 OVC070=

USA.gov is the U.S. government's official web portal to all federal, state and local government web resources and services.